Terminal Aerodrome Forecast
Issued by NWS Greer, SC

Home | Current Version | Previous Version | Text Only | Print | Product List | Glossary On
Versions: 1 2 3 4 5 6 7 8 9 10 11 12
830
FTUS42 KGSP 231729
TAFGSP
TAF
KGSP 231729Z 2318/2418 05013KT 6SM -SHRA BR OVC008
     FM232100 04014G21KT 5SM SHRA BR OVC005
      TEMPO 2321/2401 3SM +SHRA BR OVC003
     FM240200 03013KT 2SM -SHRA BR OVC008
     FM240500 04013KT 4SM -SHRA BR OVC003 PROB30 2412/2416 2SM SHRA
      BR OVC003=

USA.gov is the U.S. government's official web portal to all federal, state and local government web resources and services.